createdAt,value
2022-07-28T00:01:13.747Z,19.70
2022-07-28T00:03:41.977Z,19.80
2022-07-28T00:06:12.981Z,19.70
2022-07-28T00:08:41.135Z,19.60
2022-07-28T00:11:09.459Z,19.40
2022-07-28T00:13:39.299Z,19.40
2022-07-28T00:16:08.356Z,19.40
2022-07-28T00:18:36.771Z,19.70
2022-07-28T00:21:05.201Z,19.70
2022-07-28T00:23:38.659Z,19.60
2022-07-28T00:26:08.445Z,19.40
2022-07-28T00:28:36.997Z,19.20
2022-07-28T00:31:08.710Z,19.10
2022-07-28T00:33:40.219Z,19.30
2022-07-28T00:36:10.421Z,19.40
2022-07-28T00:38:44.315Z,19.30
2022-07-28T00:41:13.153Z,19.30
2022-07-28T00:43:42.383Z,19.50
2022-07-28T00:46:12.515Z,19.50
2022-07-28T00:48:41.675Z,19.80
2022-07-28T00:51:10.373Z,19.80
2022-07-28T00:53:42.195Z,20.00
2022-07-28T00:56:13.751Z,20.20
2022-07-28T00:58:42.187Z,20.40
2022-07-28T01:01:17.800Z,20.60
2022-07-28T01:03:47.033Z,20.70
2022-07-28T01:06:22.471Z,20.20
2022-07-28T01:08:55.981Z,19.60
2022-07-28T01:11:27.977Z,19.60
2022-07-28T01:14:11.818Z,19.70
2022-07-28T01:16:50.703Z,19.50
2022-07-28T01:19:23.795Z,19.30
2022-07-28T01:21:52.480Z,19.20
2022-07-28T01:24:24.151Z,19.10
2022-07-28T01:26:57.567Z,19.10
2022-07-28T01:29:46.601Z,19.20
2022-07-28T01:32:20.092Z,19.30
2022-07-28T01:34:51.091Z,19.50
2022-07-28T01:37:21.238Z,19.70
2022-07-28T01:39:52.280Z,20.10
2022-07-28T01:42:22.894Z,20.30
2022-07-28T01:44:51.888Z,20.30
2022-07-28T01:47:23.127Z,20.50
2022-07-28T01:49:52.218Z,20.60
2022-07-28T01:52:21.456Z,20.60
2022-07-28T01:54:52.124Z,20.50
2022-07-28T01:57:21.166Z,20.60
2022-07-28T01:59:50.239Z,20.60
2022-07-28T02:02:22.332Z,20.50
2022-07-28T02:04:51.654Z,20.50
2022-07-28T02:07:20.686Z,20.20
2022-07-28T02:09:49.013Z,19.90
2022-07-28T02:12:18.691Z,19.80
2022-07-28T02:14:48.322Z,19.70
2022-07-28T02:17:18.741Z,19.70
2022-07-28T02:19:49.143Z,19.50
2022-07-28T02:22:17.926Z,19.50
2022-07-28T02:24:48.463Z,19.40
2022-07-28T02:27:20.578Z,19.30
2022-07-28T02:29:51.738Z,19.20
2022-07-28T02:32:28.294Z,19.00
2022-07-28T02:35:01.999Z,19.20
2022-07-28T02:37:33.451Z,19.10
2022-07-28T02:40:03.108Z,19.00
2022-07-28T02:42:32.914Z,18.90
2022-07-28T02:45:02.924Z,19.00
2022-07-28T02:47:33.110Z,19.30
2022-07-28T02:50:05.048Z,19.70
2022-07-28T02:52:34.904Z,19.80
2022-07-28T02:55:06.146Z,19.90
2022-07-28T02:57:34.777Z,19.80
2022-07-28T03:00:03.374Z,19.20
2022-07-28T03:02:33.993Z,19.00
2022-07-28T03:05:07.555Z,18.90
2022-07-28T03:07:41.590Z,19.20
2022-07-28T03:10:34.043Z,19.50
2022-07-28T03:13:03.301Z,19.70
2022-07-28T03:15:32.171Z,19.90
2022-07-28T03:18:00.960Z,19.50
2022-07-28T03:20:30.745Z,19.00
2022-07-28T03:22:59.499Z,18.70
2022-07-28T03:25:29.809Z,18.70
2022-07-28T03:27:59.392Z,18.60
2022-07-28T03:30:29.206Z,18.50
2022-07-28T03:32:58.744Z,18.50
2022-07-28T03:35:27.374Z,18.60
2022-07-28T03:37:58.914Z,18.60
2022-07-28T03:40:29.662Z,18.30
2022-07-28T03:42:58.642Z,18.20
2022-07-28T03:45:27.501Z,18.00
2022-07-28T03:47:57.719Z,17.90
2022-07-28T03:50:28.078Z,17.70
2022-07-28T03:52:59.768Z,17.80
2022-07-28T03:55:32.016Z,17.90
2022-07-28T03:58:01.491Z,18.00
2022-07-28T04:00:30.004Z,17.90
2022-07-28T04:02:58.402Z,17.80
2022-07-28T04:05:26.816Z,17.80
2022-07-28T04:07:55.180Z,18.10
2022-07-28T04:10:25.002Z,18.50
2022-07-28T04:12:56.679Z,18.80
2022-07-28T04:15:27.118Z,19.00
2022-07-28T04:17:56.641Z,18.80
2022-07-28T04:20:26.913Z,18.40
2022-07-28T04:22:56.742Z,18.00
2022-07-28T04:25:28.334Z,18.00
2022-07-28T04:27:57.060Z,18.20
2022-07-28T04:30:27.914Z,18.60
2022-07-28T04:33:04.060Z,18.90
2022-07-28T04:35:36.322Z,19.10
2022-07-28T04:38:04.861Z,19.30
2022-07-28T04:40:34.955Z,19.50
2022-07-28T04:43:03.986Z,19.50
2022-07-28T04:45:32.579Z,19.60
2022-07-28T04:48:01.039Z,19.70
2022-07-28T04:50:29.495Z,19.70
2022-07-28T04:53:01.049Z,19.80
2022-07-28T04:55:29.622Z,19.90
2022-07-28T04:57:59.556Z,19.90
2022-07-28T05:00:28.057Z,20.00
2022-07-28T05:02:58.490Z,20.00
2022-07-28T05:05:27.355Z,20.00
2022-07-28T05:07:56.034Z,20.10
2022-07-28T05:10:24.634Z,20.20
2022-07-28T05:12:54.737Z,20.30
2022-07-28T05:15:27.312Z,20.30
2022-07-28T05:17:55.881Z,20.30
2022-07-28T05:20:24.290Z,20.30
2022-07-28T05:22:53.853Z,20.30
2022-07-28T05:25:23.672Z,20.40
2022-07-28T05:27:52.884Z,20.50
2022-07-28T05:30:21.983Z,20.30
2022-07-28T05:32:53.839Z,20.30
2022-07-28T05:35:25.392Z,20.40
2022-07-28T05:37:53.844Z,20.30
2022-07-28T05:40:23.945Z,20.20
2022-07-28T05:42:52.745Z,20.30
2022-07-28T05:45:21.227Z,20.30
2022-07-28T05:47:53.181Z,20.30
2022-07-28T05:50:24.221Z,20.40
2022-07-28T05:52:52.983Z,20.40
2022-07-28T05:55:21.854Z,20.40
2022-07-28T05:57:51.133Z,20.40
2022-07-28T06:00:21.891Z,20.40
2022-07-28T06:02:54.040Z,20.30
2022-07-28T06:05:24.419Z,20.30
2022-07-28T06:07:53.394Z,20.30
2022-07-28T06:10:23.505Z,20.20
2022-07-28T06:12:54.813Z,20.10
2022-07-28T06:15:25.905Z,20.10
2022-07-28T06:17:57.013Z,20.20
2022-07-28T06:20:27.967Z,20.30
2022-07-28T06:22:57.864Z,20.40
2022-07-28T06:25:28.193Z,20.50
2022-07-28T06:27:59.230Z,20.50
2022-07-28T06:30:28.789Z,20.40
2022-07-28T06:33:05.674Z,20.50
2022-07-28T06:35:47.713Z,20.70
2022-07-28T06:38:20.891Z,20.80
2022-07-28T06:40:49.472Z,20.90
2022-07-28T06:43:17.926Z,21.00
2022-07-28T06:45:46.653Z,21.10
2022-07-28T06:48:20.227Z,21.20
2022-07-28T06:50:48.757Z,21.20
2022-07-28T06:53:18.617Z,21.20
2022-07-28T06:55:49.997Z,21.20
2022-07-28T06:58:18.974Z,21.30
2022-07-28T07:00:47.708Z,21.40
2022-07-28T07:03:19.039Z,21.60
2022-07-28T07:05:51.539Z,21.90
2022-07-28T07:08:21.748Z,22.00
2022-07-28T07:10:50.708Z,22.10
2022-07-28T07:13:19.383Z,22.30
2022-07-28T07:15:48.185Z,22.50
2022-07-28T07:18:18.284Z,22.80
2022-07-28T07:20:53.470Z,23.00
2022-07-28T07:23:25.300Z,23.10
2022-07-28T07:25:57.472Z,23.50
2022-07-28T07:28:34.576Z,23.40
2022-07-28T07:31:17.783Z,23.70
2022-07-28T07:34:01.929Z,23.70
2022-07-28T07:36:34.061Z,23.90
2022-07-28T07:39:02.868Z,24.10
2022-07-28T07:41:34.955Z,24.20
2022-07-28T07:44:09.942Z,24.30
2022-07-28T07:47:02.317Z,24.40
2022-07-28T07:49:57.584Z,24.60
2022-07-28T07:52:27.043Z,24.80
2022-07-28T07:54:55.311Z,24.80
2022-07-28T07:57:23.695Z,24.80
2022-07-28T07:59:52.354Z,24.90
2022-07-28T08:02:20.872Z,25.00
2022-07-28T08:04:49.369Z,25.10
2022-07-28T08:07:21.997Z,24.90
2022-07-28T08:09:50.747Z,25.20
2022-07-28T08:12:24.962Z,25.40
2022-07-28T08:14:54.014Z,25.70
2022-07-28T08:17:25.898Z,25.60
2022-07-28T08:19:54.682Z,25.40
2022-07-28T08:22:24.723Z,25.30
2022-07-28T08:24:53.409Z,25.50
2022-07-28T08:27:21.878Z,25.60
2022-07-28T08:29:50.399Z,25.70
2022-07-28T08:32:29.453Z,25.90
2022-07-28T08:35:32.408Z,26.00
2022-07-28T08:38:23.754Z,26.30
2022-07-28T08:42:28.100Z,26.30
2022-07-28T09:45:30.532Z,27.70
2022-07-28T11:31:49.688Z,29.60
2022-07-28T11:38:20.267Z,29.80
2022-07-28T12:05:34.313Z,30.40
2022-07-28T12:17:40.723Z,30.60
2022-07-28T12:26:31.333Z,30.70
2022-07-28T12:30:56.248Z,31.10
2022-07-28T12:43:04.205Z,31.60
2022-07-28T12:46:07.595Z,31.30
2022-07-28T12:49:41.435Z,31.20
2022-07-28T12:52:35.371Z,31.00
2022-07-28T12:55:35.028Z,31.10
2022-07-28T12:58:40.405Z,31.10
2022-07-28T13:01:29.157Z,31.10
2022-07-28T13:03:58.552Z,31.10
2022-07-28T13:06:31.734Z,31.00
2022-07-28T13:09:00.680Z,31.00
2022-07-28T13:11:45.857Z,30.90
2022-07-28T13:14:16.461Z,30.80
2022-07-28T13:17:00.791Z,30.70
2022-07-28T13:20:26.069Z,30.60
2022-07-28T13:23:05.529Z,30.70
2022-07-28T13:34:03.033Z,30.80
2022-07-28T13:36:45.265Z,31.10
2022-07-28T13:48:58.103Z,31.00
2022-07-28T13:58:41.778Z,30.70
2022-07-28T14:01:23.415Z,30.90
2022-07-28T14:07:15.258Z,31.30
2022-07-28T14:09:56.885Z,31.60
2022-07-28T14:12:48.415Z,31.60
2022-07-28T14:15:48.102Z,31.70
2022-07-28T14:18:36.605Z,31.70
2022-07-28T14:21:52.272Z,31.50
2022-07-28T14:24:47.869Z,31.40
2022-07-28T14:27:28.902Z,31.30
2022-07-28T14:34:35.726Z,31.10
2022-07-28T14:37:17.292Z,30.80
2022-07-28T14:40:12.104Z,30.90
2022-07-28T14:42:59.487Z,31.00
2022-07-28T14:46:13.601Z,31.00
2022-07-28T14:49:18.227Z,31.10
2022-07-28T14:52:25.818Z,31.10
2022-07-28T14:58:49.345Z,30.60
2022-07-28T15:01:52.785Z,30.60
2022-07-28T15:05:02.951Z,30.80
2022-07-28T15:08:01.364Z,30.70
2022-07-28T15:11:58.198Z,31.00
2022-07-28T15:14:41.217Z,31.10
2022-07-28T15:25:49.670Z,31.10
2022-07-28T15:28:59.925Z,31.00
2022-07-28T15:40:02.262Z,31.00
2022-07-28T15:42:48.380Z,31.20
2022-07-28T15:46:03.317Z,31.10
2022-07-28T15:49:08.814Z,31.20
2022-07-28T15:52:20.764Z,31.10
2022-07-28T15:56:01.011Z,31.00
2022-07-28T15:59:05.292Z,31.00
2022-07-28T16:01:34.407Z,30.90
2022-07-28T16:04:12.544Z,30.90
2022-07-28T16:07:03.757Z,30.80
2022-07-28T16:09:45.951Z,30.60
2022-07-28T16:12:32.293Z,30.60
2022-07-28T16:15:15.080Z,30.60
2022-07-28T16:18:01.580Z,30.50
2022-07-28T16:20:39.065Z,30.40
2022-07-28T16:27:28.253Z,30.50
2022-07-28T16:30:02.020Z,30.60
2022-07-28T16:32:33.387Z,30.60
2022-07-28T16:35:16.842Z,30.60
2022-07-28T16:38:23.563Z,30.70
2022-07-28T16:41:12.651Z,30.70
2022-07-28T16:43:55.859Z,30.70
2022-07-28T16:46:32.637Z,30.80
2022-07-28T16:49:09.099Z,30.70
2022-07-28T16:51:44.717Z,30.60
2022-07-28T16:54:31.823Z,30.60
2022-07-28T16:57:25.275Z,30.50
2022-07-28T17:00:01.137Z,30.50
2022-07-28T17:03:10.999Z,30.20
2022-07-28T17:05:44.930Z,30.20
2022-07-28T17:08:24.186Z,30.20
2022-07-28T17:10:58.599Z,30.20
2022-07-28T17:13:42.141Z,30.20
2022-07-28T17:16:25.547Z,30.10
2022-07-28T17:20:16.755Z,30.10
2022-07-28T17:22:20.270Z,30.20
2022-07-28T17:25:06.898Z,30.40
2022-07-28T17:28:21.143Z,30.40
2022-07-28T17:31:06.174Z,30.40
2022-07-28T17:35:02.969Z,30.40
2022-07-28T17:38:33.390Z,30.40
2022-07-28T17:41:34.669Z,30.30
2022-07-28T17:44:36.933Z,30.10
2022-07-28T17:47:16.482Z,30.00
2022-07-28T17:50:05.601Z,30.10
2022-07-28T17:52:36.435Z,30.00
2022-07-28T17:56:00.476Z,30.10
2022-07-28T17:58:39.241Z,30.10
2022-07-28T18:01:45.229Z,30.20
2022-07-28T18:04:22.680Z,30.30
2022-07-28T18:07:18.313Z,30.20
2022-07-28T18:10:05.173Z,30.20
2022-07-28T18:12:38.987Z,30.10
2022-07-28T18:15:21.358Z,30.10
2022-07-28T18:18:04.356Z,30.10
2022-07-28T18:20:38.186Z,30.00
2022-07-28T18:23:12.770Z,30.00
2022-07-28T18:26:01.433Z,30.00
2022-07-28T18:28:52.679Z,30.10
2022-07-28T18:32:19.160Z,30.00
2022-07-28T18:35:23.383Z,30.00
2022-07-28T18:38:23.268Z,29.90
2022-07-28T18:41:00.971Z,29.80
2022-07-28T18:43:41.378Z,29.80
2022-07-28T18:52:42.777Z,29.70
2022-07-28T18:55:17.689Z,29.70
2022-07-28T18:58:01.417Z,29.60
2022-07-28T19:09:42.308Z,29.60
2022-07-28T19:14:10.857Z,29.60
2022-07-28T19:20:06.935Z,29.40
2022-07-28T19:22:44.474Z,29.40
2022-07-28T19:25:35.744Z,29.20
2022-07-28T19:28:40.956Z,29.20
2022-07-28T19:31:12.558Z,29.30
2022-07-28T19:33:52.750Z,29.30
2022-07-28T19:36:29.914Z,29.30
2022-07-28T19:39:03.088Z,29.30
2022-07-28T19:41:36.142Z,29.10
2022-07-28T19:44:28.144Z,29.10
2022-07-28T19:47:24.866Z,28.90
2022-07-28T19:50:10.616Z,29.00
2022-07-28T19:52:48.369Z,28.80
2022-07-28T19:55:24.148Z,28.70
2022-07-28T19:58:19.996Z,28.70
2022-07-28T20:01:15.164Z,28.60
2022-07-28T20:04:06.233Z,28.60
2022-07-28T20:06:59.575Z,28.40
2022-07-28T20:09:40.850Z,28.50
2022-07-28T20:12:15.936Z,28.60
2022-07-28T20:15:18.852Z,28.40
2022-07-28T20:17:56.379Z,28.30
2022-07-28T20:20:34.295Z,28.10
2022-07-28T20:23:18.868Z,28.00
2022-07-28T20:25:48.390Z,28.00
2022-07-28T20:28:36.863Z,27.90
2022-07-28T20:31:16.770Z,27.40
2022-07-28T20:34:53.921Z,26.80
2022-07-28T20:38:44.285Z,26.40
2022-07-28T20:41:41.194Z,26.20
2022-07-28T20:44:28.175Z,26.00
2022-07-28T20:47:00.955Z,25.40
2022-07-28T20:49:32.780Z,25.10
2022-07-28T20:52:09.500Z,24.90
2022-07-28T20:54:38.653Z,24.90
2022-07-28T20:57:12.207Z,24.90
2022-07-28T20:59:43.696Z,24.80
2022-07-28T21:02:25.623Z,24.80
2022-07-28T21:04:56.871Z,24.80
2022-07-28T21:08:05.379Z,24.70
2022-07-28T21:10:28.956Z,24.80
2022-07-28T21:13:03.395Z,24.70
2022-07-28T21:15:36.030Z,24.40
2022-07-28T21:18:13.443Z,23.90
2022-07-28T21:21:32.935Z,24.10
2022-07-28T21:25:06.350Z,24.70
2022-07-28T21:28:54.864Z,25.00
2022-07-28T21:32:29.584Z,25.50
2022-07-28T21:35:25.668Z,25.70
2022-07-28T21:38:10.807Z,25.90
2022-07-28T21:41:02.515Z,25.60
2022-07-28T21:43:42.435Z,25.30
2022-07-28T21:47:24.081Z,24.80
2022-07-28T21:55:06.359Z,24.60
2022-07-28T22:01:23.918Z,24.70
2022-07-28T22:04:06.988Z,24.60
2022-07-28T22:06:41.168Z,24.60
2022-07-28T22:09:23.923Z,24.40
2022-07-28T22:11:57.082Z,24.10
2022-07-28T22:14:32.234Z,23.90
2022-07-28T22:17:03.318Z,23.90
2022-07-28T22:19:32.587Z,24.10
2022-07-28T22:22:02.523Z,24.30
2022-07-28T22:24:30.751Z,24.20
2022-07-28T22:26:59.214Z,24.40
2022-07-28T22:29:27.721Z,24.30
2022-07-28T22:31:59.747Z,24.40
2022-07-28T22:34:31.911Z,24.50
2022-07-28T22:37:13.097Z,24.60
2022-07-28T22:39:43.234Z,24.80
2022-07-28T22:42:12.637Z,25.00
2022-07-28T22:44:41.344Z,25.10
2022-07-28T22:47:09.617Z,25.10
2022-07-28T22:49:38.180Z,24.90
2022-07-28T22:52:06.934Z,24.80
2022-07-28T22:54:38.868Z,24.80
2022-07-28T22:57:08.593Z,24.90
2022-07-28T22:59:38.571Z,24.70
2022-07-28T23:02:09.714Z,24.70
2022-07-28T23:04:42.022Z,24.60
2022-07-28T23:07:13.494Z,24.80
2022-07-28T23:09:43.868Z,24.90
2022-07-28T23:12:14.920Z,24.90
2022-07-28T23:14:43.164Z,24.80
2022-07-28T23:17:11.563Z,24.80
2022-07-28T23:19:39.808Z,24.90
2022-07-28T23:22:08.044Z,24.90
2022-07-28T23:24:36.211Z,25.00
2022-07-28T23:27:04.951Z,25.10
2022-07-28T23:29:34.518Z,25.00
2022-07-28T23:32:02.901Z,25.00
2022-07-28T23:34:34.013Z,25.00
2022-07-28T23:37:02.309Z,25.10
2022-07-28T23:39:30.958Z,25.10
2022-07-28T23:41:59.385Z,24.80
2022-07-28T23:44:27.634Z,24.90
2022-07-28T23:46:57.449Z,24.80
2022-07-28T23:49:25.783Z,24.70
2022-07-28T23:51:54.112Z,24.60
2022-07-28T23:54:22.479Z,24.60
2022-07-28T23:56:55.199Z,24.70
2022-07-28T23:59:23.702Z,24.70
